createdAt,value
2023-02-19T00:00:22.324Z,0.600
2023-02-19T00:01:20.808Z,0.100
2023-02-19T00:02:20.886Z,0.800
2023-02-19T00:03:21.180Z,0.100
2023-02-19T00:05:20.693Z,0.699
2023-02-19T00:06:20.431Z,0.600
2023-02-19T00:07:20.256Z,0.200
2023-02-19T00:08:20.908Z,0.100
2023-02-19T00:09:20.474Z,0.5
2023-02-19T00:10:20.976Z,1
2023-02-19T00:11:20.451Z,0.300
2023-02-19T00:14:20.132Z,0.400
2023-02-19T00:15:20.694Z,0.300
2023-02-19T00:16:20.667Z,0.400
2023-02-19T00:17:20.500Z,0.200
2023-02-19T00:21:21.752Z,0.300
2023-02-19T00:23:20.925Z,0.600
2023-02-19T00:24:20.076Z,0.200
2023-02-19T00:25:20.756Z,0.899
2023-02-19T00:26:22.253Z,0.5
2023-02-19T00:27:20.549Z,0.800
2023-02-19T00:28:18.397Z,0.400
2023-02-19T00:29:20.713Z,0.5
2023-02-19T00:30:21.075Z,0.600
2023-02-19T00:31:20.676Z,0.699
2023-02-19T00:32:21.321Z,0.899
2023-02-19T00:34:20.661Z,0.5
2023-02-19T00:35:20.315Z,0.600
2023-02-19T00:37:21.142Z,1
2023-02-19T00:38:20.433Z,0.899
2023-02-19T00:39:20.977Z,1.200
2023-02-19T00:40:20.606Z,0.5
2023-02-19T00:41:19.861Z,0.800
2023-02-19T00:42:20.773Z,1.100
2023-02-19T00:43:20.717Z,0.600
2023-02-19T00:44:20.189Z,1.299
2023-02-19T00:45:21.371Z,1.100
2023-02-19T00:46:21.147Z,0.5
2023-02-19T00:47:20.424Z,0.600
2023-02-19T00:48:21.143Z,1.700
2023-02-19T00:49:20.471Z,0.300
2023-02-19T00:50:21.240Z,1.100
2023-02-19T00:51:20.669Z,0.800
2023-02-19T00:52:20.429Z,0.699
2023-02-19T00:54:20.436Z,0.5
2023-02-19T00:55:20.356Z,0.699
2023-02-19T00:56:20.581Z,0.600
2023-02-19T00:57:20.505Z,1.100
2023-02-19T00:58:21.017Z,0.200
2023-02-19T00:59:20.809Z,0.300
2023-02-19T01:00:40.858Z,0.200
2023-02-19T01:01:23.967Z,0.300
2023-02-19T01:02:21.333Z,0.600
2023-02-19T01:03:20.920Z,0.400
2023-02-19T01:04:20.400Z,0.300
2023-02-19T01:05:20.323Z,0.200
2023-02-19T01:06:21.532Z,0.400
2023-02-19T01:08:20.025Z,0.600
2023-02-19T01:09:20.492Z,0.200
2023-02-19T01:10:21.564Z,0.600
2023-02-19T01:11:20.335Z,0.300
2023-02-19T01:12:21.349Z,0.200
2023-02-19T01:14:19.395Z,0.699
2023-02-19T01:15:19.879Z,0.899
2023-02-19T01:16:21.506Z,0.400
2023-02-19T01:17:20.420Z,0.699
2023-02-19T01:18:21.063Z,0.400
2023-02-19T01:19:20.382Z,0.200
2023-02-19T01:20:20.894Z,1
2023-02-19T01:21:20.615Z,0.400
2023-02-19T01:22:20.962Z,0.5
2023-02-19T01:23:20.673Z,0.300
2023-02-19T01:25:20.452Z,0.5
2023-02-19T01:26:20.725Z,1.5
2023-02-19T01:27:20.766Z,0.699
2023-02-19T01:28:20.043Z,1.100
2023-02-19T01:29:20.316Z,0.600
2023-02-19T01:30:21.022Z,1.700
2023-02-19T01:31:20.519Z,0.699
2023-02-19T01:32:20.965Z,0.899
2023-02-19T01:33:20.525Z,1.100
2023-02-19T01:34:20.431Z,2.099
2023-02-19T01:35:21.046Z,0.699
2023-02-19T01:36:20.392Z,1.700
2023-02-19T01:37:20.775Z,1.600
2023-02-19T01:38:20.103Z,0.800
2023-02-19T01:39:20.726Z,1.399
2023-02-19T01:40:20.949Z,2.200
2023-02-19T01:41:20.734Z,1.399
2023-02-19T01:43:20.391Z,1.299
2023-02-19T01:44:20.467Z,0.899
2023-02-19T01:45:21.921Z,1.200
2023-02-19T01:46:20.645Z,1.299
2023-02-19T01:47:19.863Z,0.899
2023-02-19T01:48:20.422Z,1.600
2023-02-19T01:49:20.126Z,1.5
2023-02-19T01:50:21.122Z,0.800
2023-02-19T01:51:20.275Z,1.200
2023-02-19T01:52:20.616Z,1
2023-02-19T01:53:20.504Z,1.5
2023-02-19T01:54:20.747Z,0.699
2023-02-19T01:55:20.258Z,0.899
2023-02-19T01:56:20.218Z,0.800
2023-02-19T01:57:20.730Z,0.899
2023-02-19T01:58:21.093Z,1.299
2023-02-19T01:59:20.832Z,0.5
2023-02-19T02:00:22.157Z,0.800
2023-02-19T02:01:21.185Z,1.299
2023-02-19T02:02:20.867Z,1.200
2023-02-19T02:03:21.336Z,1.700
2023-02-19T02:04:20.965Z,1.200
2023-02-19T02:05:20.370Z,1.600
2023-02-19T02:06:20.895Z,1.799
2023-02-19T02:08:20.927Z,1.299
2023-02-19T02:09:20.955Z,2.400
2023-02-19T02:10:20.925Z,1.600
2023-02-19T02:11:20.546Z,1.799
2023-02-19T02:12:20.144Z,1.600
2023-02-19T02:13:20.977Z,1
2023-02-19T02:14:20.807Z,1.600
2023-02-19T02:15:21.129Z,2.099
2023-02-19T02:16:20.935Z,2.5
2023-02-19T02:17:20.240Z,2.799
2023-02-19T02:18:20.431Z,1.700
2023-02-19T02:19:20.549Z,1.5
2023-02-19T02:20:20.742Z,2
2023-02-19T02:21:20.178Z,1.600
2023-02-19T02:22:20.401Z,1.700
2023-02-19T02:23:20.278Z,2.5
2023-02-19T02:24:20.528Z,1.5
2023-02-19T02:25:21.333Z,1.899
2023-02-19T02:26:21.027Z,2
2023-02-19T02:27:20.822Z,2.099
2023-02-19T02:28:20.216Z,2.400
2023-02-19T02:29:20.543Z,1.700
2023-02-19T02:30:21.259Z,1.600
2023-02-19T02:31:21.385Z,2
2023-02-19T02:32:21.026Z,2.200
2023-02-19T02:33:21.072Z,3.099
2023-02-19T02:34:20.607Z,2.099
2023-02-19T02:35:21.102Z,2.599
2023-02-19T02:36:20.414Z,2
2023-02-19T02:37:20.581Z,2.599
2023-02-19T02:38:20.344Z,2.200
2023-02-19T02:40:20.758Z,3
2023-02-19T02:41:21.131Z,2.200
2023-02-19T02:42:21.470Z,1.899
2023-02-19T02:43:20.173Z,3.200
2023-02-19T02:44:20.365Z,2.799
2023-02-19T02:45:21.382Z,3.5
2023-02-19T02:46:20.429Z,1.899
2023-02-19T02:47:21.201Z,3
2023-02-19T02:48:20.858Z,2.200
2023-02-19T02:49:20.479Z,1.799
2023-02-19T02:50:21.458Z,2.900
2023-02-19T02:51:20.996Z,3.099
2023-02-19T02:52:19.902Z,3.799
2023-02-19T02:53:21.130Z,2.400
2023-02-19T02:54:20.441Z,2.599
2023-02-19T02:55:21.026Z,3.900
2023-02-19T02:56:20.406Z,2.900
2023-02-19T02:57:20.634Z,3.599
2023-02-19T02:58:21.184Z,3.299
2023-02-19T02:59:21.475Z,4.199
2023-02-19T03:00:22.406Z,4.599
2023-02-19T03:01:21.060Z,4.400
2023-02-19T03:02:20.347Z,4.5
2023-02-19T03:03:20.659Z,5.599
2023-02-19T03:04:21.057Z,4.5
2023-02-19T03:05:20.826Z,5.099
2023-02-19T03:06:21.613Z,6.5
2023-02-19T03:07:21.297Z,5.699
2023-02-19T03:08:20.696Z,4.800
2023-02-19T03:09:19.919Z,5.199
2023-02-19T03:10:21.002Z,5.099
2023-02-19T03:11:20.323Z,5.800
2023-02-19T03:13:20.464Z,6
2023-02-19T03:14:20.750Z,6.400
2023-02-19T03:15:20.658Z,5.599
2023-02-19T03:16:20.466Z,5.699
2023-02-19T03:17:21.089Z,6.199
2023-02-19T03:18:20.575Z,6.400
2023-02-19T03:19:20.756Z,6.300
2023-02-19T03:21:20.923Z,7.900
2023-02-19T03:22:20.610Z,7.400
2023-02-19T03:23:21.411Z,7.599
2023-02-19T03:24:20.874Z,7.400
2023-02-19T03:25:20.816Z,6.099
2023-02-19T03:26:20.559Z,6.599
2023-02-19T03:28:21.170Z,6.300
2023-02-19T03:29:20.642Z,7.199
2023-02-19T03:31:20.964Z,5.699
2023-02-19T03:32:20.851Z,7.199
2023-02-19T03:33:20.213Z,6.199
2023-02-19T03:34:20.621Z,7.099
2023-02-19T03:35:21.331Z,7.5
2023-02-19T03:36:21.026Z,6.400
2023-02-19T03:37:20.947Z,7
2023-02-19T03:38:20.669Z,7.099
2023-02-19T03:39:20.982Z,7.5
2023-02-19T03:40:20.546Z,7
2023-02-19T03:41:21.289Z,7.199
2023-02-19T03:42:20.795Z,8
2023-02-19T03:43:20.583Z,6.800
2023-02-19T03:44:21.180Z,7
2023-02-19T03:45:21.586Z,6.900
2023-02-19T03:46:21.304Z,7.5
2023-02-19T03:47:20.586Z,6.599
2023-02-19T03:48:20.994Z,9
2023-02-19T03:49:20.884Z,8.199
2023-02-19T03:50:20.438Z,7.099
2023-02-19T03:51:20.621Z,7.900
2023-02-19T03:52:20.002Z,8.100
2023-02-19T03:53:20.996Z,8.300
2023-02-19T03:54:21.289Z,7.699
2023-02-19T03:55:21.177Z,7.800
2023-02-19T03:56:21.255Z,7.300
2023-02-19T03:57:21.274Z,8.699
2023-02-19T03:58:20.895Z,8.199
2023-02-19T03:59:20.470Z,6.800
2023-02-19T04:00:22.507Z,8.600
2023-02-19T04:01:21.487Z,9
2023-02-19T04:02:21.452Z,6.900
2023-02-19T04:03:21.318Z,7.599
2023-02-19T04:04:21.540Z,8.100
2023-02-19T04:05:21.334Z,7.400
2023-02-19T04:06:20.879Z,8
2023-02-19T04:07:20.469Z,9.300
2023-02-19T04:08:20.477Z,8.300
2023-02-19T04:09:20.866Z,8
2023-02-19T04:10:20.647Z,9
2023-02-19T04:11:20.924Z,8.699
2023-02-19T04:12:20.308Z,8.600
2023-02-19T04:13:20.278Z,8.100
2023-02-19T04:14:20.610Z,7.800
2023-02-19T04:15:21.321Z,8.600
2023-02-19T04:16:20.990Z,7.300
2023-02-19T04:17:21.038Z,9.5
2023-02-19T04:18:21.188Z,8.199
2023-02-19T04:19:20.662Z,9.100
2023-02-19T04:20:21.215Z,7.800
2023-02-19T04:21:20.425Z,9.899
2023-02-19T04:22:21.134Z,6.599
2023-02-19T04:23:21.300Z,8.899
2023-02-19T04:24:20.951Z,8.300
2023-02-19T04:25:21.119Z,9.300
2023-02-19T04:26:20.652Z,11.60
2023-02-19T04:27:21.252Z,8.300
2023-02-19T04:28:20.044Z,7.599
2023-02-19T04:29:20.693Z,8.5
2023-02-19T04:30:21.707Z,8.600
2023-02-19T04:31:20.884Z,8.800
2023-02-19T04:32:20.437Z,7.800
2023-02-19T04:33:20.391Z,9
2023-02-19T04:34:20.842Z,8.899
2023-02-19T04:35:19.948Z,8.300
2023-02-19T04:36:20.840Z,7.699
2023-02-19T04:37:20.332Z,9
2023-02-19T04:38:21.280Z,8.800
2023-02-19T04:39:20.836Z,10.80
2023-02-19T04:40:21.604Z,10.39
2023-02-19T04:41:20.326Z,9
2023-02-19T04:42:20.357Z,7
2023-02-19T04:43:21.219Z,9
2023-02-19T04:44:20.303Z,9.699
2023-02-19T04:45:21.179Z,7.900
2023-02-19T04:46:21.143Z,10.89
2023-02-19T04:47:20.929Z,10.19
2023-02-19T04:48:21.075Z,7.599
2023-02-19T04:49:20.771Z,8.199
2023-02-19T04:50:21.597Z,9.600
2023-02-19T04:51:20.832Z,10.89
2023-02-19T04:52:20.533Z,9.100
2023-02-19T04:53:20.617Z,9.800
2023-02-19T04:54:20.957Z,10.89
2023-02-19T04:55:21.284Z,9.100
2023-02-19T04:56:21.188Z,10.30
2023-02-19T04:57:20.238Z,11.80
2023-02-19T04:58:20.651Z,7.699
2023-02-19T04:59:20.489Z,9.5
2023-02-19T05:00:21.779Z,7.800
2023-02-19T05:01:20.539Z,9.300
2023-02-19T05:02:20.370Z,10.30
2023-02-19T05:03:21.009Z,9.399
2023-02-19T05:04:20.509Z,10.80
2023-02-19T05:05:21.088Z,7.400
2023-02-19T05:06:20.416Z,9.5
2023-02-19T05:07:21.316Z,10.10
2023-02-19T05:08:20.661Z,11.39
2023-02-19T05:09:20.712Z,9
2023-02-19T05:10:20.571Z,10.10
2023-02-19T05:11:20.289Z,9.199
2023-02-19T05:12:20.855Z,8.699
2023-02-19T05:13:20.987Z,7.699
2023-02-19T05:14:20.660Z,9.600
2023-02-19T05:16:20.226Z,8.899
2023-02-19T05:17:20.705Z,7.900
2023-02-19T05:18:20.459Z,8.600
2023-02-19T05:19:20.717Z,8.699
2023-02-19T05:20:20.615Z,7.5
2023-02-19T05:21:20.003Z,8.699
2023-02-19T05:22:20.500Z,7.900
2023-02-19T05:23:20.179Z,9.600
2023-02-19T05:24:20.461Z,8.800
2023-02-19T05:25:21.018Z,10.80
2023-02-19T05:26:20.292Z,9.5
2023-02-19T05:27:20.815Z,7.400
2023-02-19T05:28:20.154Z,9.399
2023-02-19T05:29:20.485Z,8.5
2023-02-19T05:30:20.957Z,8.899
2023-02-19T05:31:20.811Z,7.5
2023-02-19T05:32:20.558Z,8.5
2023-02-19T05:33:21.117Z,7.900
2023-02-19T05:34:21.015Z,9.199
2023-02-19T05:35:20.285Z,8.300
2023-02-19T05:36:20.548Z,8.399
2023-02-19T05:37:20.348Z,8.300
2023-02-19T05:38:20.574Z,8.399
2023-02-19T05:39:20.988Z,9.899
2023-02-19T05:40:21.038Z,7.900
2023-02-19T05:41:20.402Z,9.800
2023-02-19T05:42:20.983Z,8.199
2023-02-19T05:43:19.982Z,8.5
2023-02-19T05:44:20.157Z,10.60
2023-02-19T05:45:21.421Z,9.300
2023-02-19T05:46:20.455Z,8.699
2023-02-19T05:47:20.827Z,8.5
2023-02-19T05:48:20.452Z,9.5
2023-02-19T05:49:20.004Z,9.199
2023-02-19T05:50:20.798Z,8.399
2023-02-19T05:51:20.802Z,11
2023-02-19T05:53:20.844Z,10.19
2023-02-19T05:54:20.655Z,10.89
2023-02-19T05:55:20.457Z,11.10
2023-02-19T05:56:21.101Z,9.199
2023-02-19T05:57:21.245Z,12.69
2023-02-19T05:58:21.143Z,10.60
2023-02-19T06:00:22.602Z,11.10
2023-02-19T06:01:21.038Z,11.39
2023-02-19T06:02:42.509Z,11.30
2023-02-19T06:03:21.102Z,10.69
2023-02-19T06:04:20.729Z,12.5
2023-02-19T06:05:20.609Z,11.30
2023-02-19T06:07:20.603Z,10.39
2023-02-19T06:08:20.392Z,12.10
2023-02-19T06:09:20.902Z,10.89
2023-02-19T06:10:20.897Z,11.30
2023-02-19T06:11:20.608Z,12
2023-02-19T06:13:20.881Z,10.30
2023-02-19T06:14:21.750Z,9.899
2023-02-19T06:15:21.540Z,11.60
2023-02-19T06:16:20.403Z,10.89
2023-02-19T06:18:21.118Z,11
2023-02-19T06:19:20.638Z,10.80
2023-02-19T06:20:21.072Z,9.100
2023-02-19T06:21:20.579Z,9.300
2023-02-19T06:22:21.072Z,11.39
2023-02-19T06:23:20.947Z,12.69
2023-02-19T06:24:20.766Z,10.19
2023-02-19T06:25:21.192Z,11.30
2023-02-19T06:26:20.865Z,10.39
2023-02-19T06:27:20.330Z,10.5
2023-02-19T06:28:20.712Z,11.30
2023-02-19T06:29:20.616Z,11.69
2023-02-19T06:30:20.649Z,9.600
2023-02-19T06:31:20.750Z,11
2023-02-19T06:32:21.209Z,11.30
2023-02-19T06:33:20.797Z,10.69
2023-02-19T06:34:20.538Z,11.39
2023-02-19T06:35:20.592Z,11.60
2023-02-19T06:36:21.556Z,11.30
2023-02-19T06:37:20.843Z,12.10
2023-02-19T06:38:21.375Z,12.80
2023-02-19T06:39:21.015Z,10.5
2023-02-19T06:41:21.123Z,11.39
2023-02-19T06:42:20.538Z,14
2023-02-19T06:43:21.559Z,15.39
2023-02-19T06:44:20.592Z,11.10
2023-02-19T06:45:21.496Z,11.5
2023-02-19T06:46:21.583Z,12.60
2023-02-19T06:47:20.861Z,11.89
2023-02-19T06:48:20.985Z,10.60
2023-02-19T06:49:21.406Z,10.80
2023-02-19T06:50:21.708Z,11.80
2023-02-19T06:51:20.657Z,11.69
2023-02-19T06:52:21.102Z,11.89
2023-02-19T06:53:20.559Z,10.30
2023-02-19T06:54:20.386Z,10.60
2023-02-19T06:55:20.365Z,9.600
2023-02-19T06:56:20.419Z,12.89
2023-02-19T06:57:20.290Z,12
2023-02-19T06:59:20.494Z,11
2023-02-19T07:00:22.535Z,11.5
2023-02-19T07:01:21.576Z,10.39
2023-02-19T07:02:20.667Z,10.30
2023-02-19T07:03:21.108Z,10.69
2023-02-19T07:04:20.762Z,12.19
2023-02-19T07:05:22.040Z,11.80
2023-02-19T07:06:21.689Z,9
2023-02-19T07:07:21.294Z,11.60
2023-02-19T07:08:22.777Z,9.699
2023-02-19T07:09:22.226Z,9.399
2023-02-19T07:10:23.142Z,10.60
2023-02-19T07:11:21.345Z,11.60
2023-02-19T07:12:21.173Z,11.39
2023-02-19T07:13:21.333Z,9.899
2023-02-19T07:14:21.378Z,9
2023-02-19T07:15:20.832Z,9.699
2023-02-19T07:16:22.217Z,9
2023-02-19T07:17:20.983Z,13.39
2023-02-19T07:18:21.387Z,11.69
2023-02-19T07:19:20.827Z,10.19
2023-02-19T07:20:21.142Z,10.30
2023-02-19T07:21:21.675Z,10.89
2023-02-19T07:22:20.571Z,10.69
2023-02-19T07:23:20.759Z,10.19
2023-02-19T07:24:21.275Z,9.199
2023-02-19T07:25:21.287Z,11.10
2023-02-19T07:26:20.753Z,10.89
2023-02-19T07:27:21.301Z,12.10
2023-02-19T07:28:21.090Z,10.39
2023-02-19T07:29:21.165Z,12.19
2023-02-19T07:30:22.226Z,11.69
2023-02-19T07:31:21.681Z,11
2023-02-19T07:32:21.747Z,10.69
2023-02-19T07:33:21.461Z,11
2023-02-19T07:34:21.471Z,11.80
2023-02-19T07:35:20.751Z,11
2023-02-19T07:36:21.604Z,9.300
2023-02-19T07:37:21.600Z,13.19
2023-02-19T07:38:21.493Z,12.10
2023-02-19T07:39:21.532Z,10.30
2023-02-19T07:40:21.784Z,13.19
2023-02-19T07:41:21.178Z,12.80
2023-02-19T07:42:21.469Z,12.19
2023-02-19T07:43:21.645Z,11.69
2023-02-19T07:44:21.476Z,11.89
2023-02-19T07:45:21.907Z,11.60
2023-02-19T07:46:21.454Z,11.5
2023-02-19T07:47:21.629Z,10.89
2023-02-19T07:48:21.563Z,12.89
2023-02-19T07:49:21.258Z,11.5
2023-02-19T07:50:21.569Z,11.80
2023-02-19T07:51:26.310Z,12.80
2023-02-19T07:52:21.280Z,13.5
2023-02-19T07:53:21.383Z,11.19
2023-02-19T07:54:21.033Z,12.89
2023-02-19T07:55:21.802Z,13.10
2023-02-19T07:56:21.398Z,11.30
2023-02-19T07:57:21.583Z,12.69
2023-02-19T07:58:20.619Z,12.19
2023-02-19T07:59:20.677Z,13.69
2023-02-19T08:00:22.793Z,12.5
2023-02-19T08:01:22.122Z,13.89
2023-02-19T08:02:21.799Z,11.80
2023-02-19T08:03:21.566Z,12.80
2023-02-19T08:04:21.695Z,11.60
2023-02-19T08:05:21.965Z,11.69
2023-02-19T08:06:21.823Z,13.19
2023-02-19T08:07:22.043Z,13.10
2023-02-19T08:08:21.566Z,13.60
2023-02-19T08:09:21.455Z,13.19
2023-02-19T08:10:21.419Z,15
2023-02-19T08:11:21.248Z,13.30
2023-02-19T08:12:21.100Z,12
2023-02-19T08:13:21.095Z,13
2023-02-19T08:14:20.746Z,12
2023-02-19T08:15:22.477Z,12.69
2023-02-19T08:16:33.182Z,11.89
2023-02-19T08:17:21.834Z,12.60
2023-02-19T08:18:22.241Z,12.19
2023-02-19T08:19:21.098Z,10.80
2023-02-19T08:20:21.958Z,11.89
2023-02-19T08:21:21.586Z,10.69
2023-02-19T08:22:21.358Z,13.19
2023-02-19T08:23:21.821Z,12.30
2023-02-19T08:24:21.448Z,11.39
2023-02-19T08:25:21.370Z,11.5
2023-02-19T08:26:20.985Z,10.30
2023-02-19T08:27:21.445Z,11.60
2023-02-19T08:28:21.367Z,12.39
2023-02-19T08:29:20.908Z,12.69
2023-02-19T08:30:22.275Z,10.5
2023-02-19T08:31:21.480Z,11.89
2023-02-19T08:32:21.377Z,11.30
2023-02-19T08:33:20.350Z,11.69
2023-02-19T08:35:21.489Z,11.30
2023-02-19T08:36:21.169Z,10.5
2023-02-19T08:37:21.525Z,10.60
2023-02-19T08:38:21.118Z,11.5
2023-02-19T08:39:21.937Z,10.5
2023-02-19T08:40:22.300Z,9.699
2023-02-19T08:41:20.956Z,10.5
2023-02-19T08:43:21.629Z,15.30
2023-02-19T08:44:21.512Z,11.80
2023-02-19T08:45:22.499Z,12.5
2023-02-19T08:46:21.829Z,11.10
2023-02-19T08:47:21.552Z,11.69
2023-02-19T08:48:21.678Z,9.699
2023-02-19T08:49:21.298Z,11.10
2023-02-19T08:50:21.565Z,15
2023-02-19T08:51:21.134Z,12.10
2023-02-19T08:52:20.887Z,10.60
2023-02-19T08:53:21.174Z,12.10
2023-02-19T08:54:21.269Z,11.10
2023-02-19T08:55:21.382Z,12
2023-02-19T08:56:21.794Z,13.80
2023-02-19T08:57:21.120Z,13.19
2023-02-19T08:58:21.967Z,12.80
2023-02-19T08:59:21.924Z,12.69
2023-02-19T09:00:22.832Z,10.60
2023-02-19T09:01:22.079Z,10.39
2023-02-19T09:03:21.903Z,12.69
2023-02-19T09:04:21.425Z,13
2023-02-19T09:05:21.906Z,11.60
2023-02-19T09:06:21.631Z,11.19
2023-02-19T09:07:21.671Z,13
2023-02-19T09:08:21.757Z,12.5
2023-02-19T09:09:21.837Z,14.19
2023-02-19T09:10:22.378Z,12
2023-02-19T09:11:20.971Z,13.60
2023-02-19T09:12:21.553Z,11.30
2023-02-19T09:13:21.287Z,12.89
2023-02-19T09:14:21.204Z,11.5
2023-02-19T09:15:21.711Z,11.30
2023-02-19T09:17:22.081Z,11.60
2023-02-19T09:18:21.293Z,9.699
2023-02-19T09:19:21.256Z,14.39
2023-02-19T09:20:21.896Z,11.89
2023-02-19T09:21:21.158Z,12.39
2023-02-19T09:22:21.157Z,11.30
2023-02-19T09:23:21.080Z,11.60
2023-02-19T09:24:21.029Z,10.89
2023-02-19T09:25:21.391Z,12.39
2023-02-19T09:26:21.789Z,11.5
2023-02-19T09:27:21.473Z,11.89
2023-02-19T09:28:22.198Z,11.39
2023-02-19T09:29:21.524Z,12.5
2023-02-19T09:30:21.960Z,13.19
2023-02-19T09:31:21.948Z,13
2023-02-19T09:32:21.725Z,10.89
2023-02-19T09:33:21.916Z,9.899
2023-02-19T09:34:22.332Z,11.19
2023-02-19T09:35:22.110Z,14.19
2023-02-19T09:36:21.402Z,13
2023-02-19T09:37:21.594Z,12.10
2023-02-19T09:38:22.058Z,11.30
2023-02-19T09:39:21.639Z,11.69
2023-02-19T09:40:21.947Z,12.19
2023-02-19T09:41:22.235Z,12.89
2023-02-19T09:42:20.996Z,11.69
2023-02-19T09:43:22.338Z,14.89
2023-02-19T09:44:21.658Z,13.89
2023-02-19T09:45:22.382Z,11.39
2023-02-19T09:46:21.214Z,15
2023-02-19T09:47:21.080Z,14.60
2023-02-19T09:48:21.200Z,12.60
2023-02-19T09:49:21.828Z,12.10
2023-02-19T09:50:21.337Z,14.19
2023-02-19T09:51:21.620Z,11.5
2023-02-19T09:52:21.473Z,12.69
2023-02-19T09:53:22.117Z,12.30
2023-02-19T09:56:21.842Z,11.89
2023-02-19T09:58:21.326Z,12.89
2023-02-19T09:59:21.349Z,12.39
2023-02-19T10:00:22.437Z,13.69
2023-02-19T10:01:21.682Z,12.89
2023-02-19T10:02:21.839Z,12.30
2023-02-19T10:03:21.311Z,11.30
2023-02-19T10:04:21.778Z,13.10
2023-02-19T10:05:21.452Z,11.30
2023-02-19T10:06:21.944Z,9.800
2023-02-19T10:07:21.505Z,11.80
2023-02-19T10:08:22.470Z,9.699
2023-02-19T10:09:21.839Z,9.399
2023-02-19T10:10:21.116Z,10.60
2023-02-19T10:11:21.516Z,10.89
2023-02-19T10:12:21.796Z,8.800
2023-02-19T10:14:21.868Z,9.100
2023-02-19T10:15:22.337Z,7.300
2023-02-19T10:16:22.479Z,7.5
2023-02-19T10:17:21.142Z,7.300
2023-02-19T10:18:21.486Z,9.699
2023-02-19T10:19:21.454Z,8.100
2023-02-19T10:20:22.332Z,7.800
2023-02-19T10:21:22.051Z,9.100
2023-02-19T10:22:22.029Z,8.100
2023-02-19T10:23:22.028Z,7.099
2023-02-19T10:24:21.942Z,6.599
2023-02-19T10:25:21.927Z,7
2023-02-19T10:26:21.688Z,7.199
2023-02-19T10:27:21.516Z,7.300
2023-02-19T10:28:21.710Z,7.199
2023-02-19T10:29:21.938Z,7
2023-02-19T10:31:22.002Z,6.599
2023-02-19T10:32:21.595Z,6.5
2023-02-19T10:33:21.712Z,8
2023-02-19T10:34:22.284Z,7.199
2023-02-19T10:35:21.542Z,6.5
2023-02-19T10:36:19.983Z,7.699
2023-02-19T10:37:21.793Z,8.100
2023-02-19T10:38:21.919Z,6.699
2023-02-19T10:39:21.085Z,7.5
2023-02-19T10:40:40.694Z,7
2023-02-19T10:41:20.876Z,6.5
2023-02-19T10:42:20.878Z,7.800
2023-02-19T10:43:21.305Z,7.300
2023-02-19T10:44:21.385Z,7.099
2023-02-19T10:45:21.992Z,7.300
2023-02-19T10:46:21.659Z,7.5
2023-02-19T10:47:21.456Z,7
2023-02-19T10:48:22.100Z,7.800
2023-02-19T10:49:21.680Z,6.199
2023-02-19T10:51:22.076Z,6.5
2023-02-19T10:52:21.841Z,6.599
2023-02-19T10:53:21.517Z,6.400
2023-02-19T10:54:21.556Z,6.900
2023-02-19T10:55:21.771Z,7.300
2023-02-19T10:56:21.611Z,5.900
2023-02-19T10:57:21.608Z,5.800
2023-02-19T10:58:22.030Z,6.800
2023-02-19T10:59:21.157Z,6
2023-02-19T11:00:23.004Z,5.800
2023-02-19T11:01:22.316Z,7.599
2023-02-19T11:02:21.317Z,6.599
2023-02-19T11:03:22.325Z,5.699
2023-02-19T11:04:21.673Z,7.099
2023-02-19T11:05:23.126Z,6.699
2023-02-19T11:06:22.120Z,6.400
2023-02-19T11:07:23.003Z,5.699
2023-02-19T11:09:22.518Z,6.300
2023-02-19T11:10:24.102Z,5.900
2023-02-19T11:11:22.726Z,6.800
2023-02-19T11:12:22.411Z,6.300
2023-02-19T11:13:22.228Z,7.900
2023-02-19T11:14:21.290Z,7.699
2023-02-19T11:15:21.726Z,6.099
2023-02-19T11:16:21.828Z,6.5
2023-02-19T11:17:21.930Z,6
2023-02-19T11:18:22.172Z,6.599
2023-02-19T11:19:21.473Z,5.300
2023-02-19T11:20:21.695Z,5.400
2023-02-19T11:21:21.929Z,6.199
2023-02-19T11:22:21.664Z,6.400
2023-02-19T11:23:22.146Z,6.199
2023-02-19T11:24:21.682Z,4.800
2023-02-19T11:25:22.432Z,5.199
2023-02-19T11:26:21.448Z,6.199
2023-02-19T11:27:21.913Z,4.599
2023-02-19T11:28:22.239Z,6.900
2023-02-19T11:29:21.563Z,5.800
2023-02-19T11:30:23.197Z,5.599
2023-02-19T11:31:22.114Z,6
2023-02-19T11:32:22.274Z,5.5
2023-02-19T11:33:21.809Z,6.099
2023-02-19T11:34:22.122Z,6.5
2023-02-19T11:35:21.673Z,4.5
2023-02-19T11:36:21.705Z,5.699
2023-02-19T11:37:22.046Z,6.099
2023-02-19T11:38:22.287Z,6.5
2023-02-19T11:40:21.956Z,5.099
2023-02-19T11:41:21.292Z,5.400
2023-02-19T11:42:21.909Z,5.900
2023-02-19T11:43:22.240Z,7.5
2023-02-19T11:44:21.752Z,6.099
2023-02-19T11:45:22.959Z,6.699
2023-02-19T11:46:21.951Z,6.099
2023-02-19T11:47:21.438Z,7.300
2023-02-19T11:48:22.031Z,7.599
2023-02-19T11:49:20.892Z,6.900
2023-02-19T11:50:21.536Z,7
2023-02-19T11:51:21.576Z,6.199
2023-02-19T11:52:21.626Z,6.699
2023-02-19T11:53:21.088Z,8.600
2023-02-19T11:54:21.559Z,7.699
2023-02-19T11:55:21.978Z,7.800
2023-02-19T11:56:21.979Z,7.400
2023-02-19T11:57:22.413Z,6.900
2023-02-19T11:58:21.788Z,8.899
2023-02-19T11:59:21.929Z,7.5
2023-02-19T12:00:22.484Z,7.800
2023-02-19T12:01:22.348Z,7
2023-02-19T12:02:22.622Z,6.699
2023-02-19T12:03:22.184Z,7.400
2023-02-19T12:04:22.649Z,8
2023-02-19T12:05:22.812Z,8.199
2023-02-19T12:06:22.508Z,8.600
2023-02-19T12:07:23.133Z,7.699
2023-02-19T12:08:22.284Z,7.599
2023-02-19T12:09:22.494Z,7.300
2023-02-19T12:10:22.048Z,7.900
2023-02-19T12:11:21.751Z,7.599
2023-02-19T12:12:21.921Z,8.899
2023-02-19T12:13:22.061Z,8.100
2023-02-19T12:14:21.097Z,7.300
2023-02-19T12:15:22.584Z,7.5
2023-02-19T12:16:22.160Z,9.5
2023-02-19T12:17:21.728Z,7.199
2023-02-19T12:18:21.552Z,8.600
2023-02-19T12:19:22.019Z,7.599
2023-02-19T12:20:22.235Z,9.300
2023-02-19T12:21:21.992Z,7.699
2023-02-19T12:22:22.038Z,7.300
2023-02-19T12:23:22.584Z,7.599
2023-02-19T12:24:22.980Z,9.899
2023-02-19T12:25:22.124Z,7.099
2023-02-19T12:26:22.282Z,7.5
2023-02-19T12:27:22.029Z,6.300
2023-02-19T12:28:21.576Z,7.199
2023-02-19T12:29:21.852Z,7.5
2023-02-19T12:30:22.669Z,7.300
2023-02-19T12:31:21.772Z,6.300
2023-02-19T12:32:21.313Z,8.699
2023-02-19T12:33:22.325Z,5.900
2023-02-19T12:34:21.501Z,8.399
2023-02-19T12:35:23.092Z,8
2023-02-19T12:36:21.360Z,7.800
2023-02-19T12:37:21.848Z,7
2023-02-19T12:38:21.777Z,6.400
2023-02-19T12:39:22.085Z,6.199
2023-02-19T12:40:21.998Z,6.5
2023-02-19T12:41:22.077Z,7.099
2023-02-19T12:42:22.100Z,7.800
2023-02-19T12:43:21.390Z,7.199
2023-02-19T12:44:21.693Z,7.599
2023-02-19T12:45:21.845Z,7.199
2023-02-19T12:47:22.191Z,6.300
2023-02-19T12:48:22.157Z,6.099
2023-02-19T12:49:30.163Z,5.300
2023-02-19T12:50:22.392Z,6
2023-02-19T12:51:21.977Z,5.099
2023-02-19T12:52:22.200Z,5
2023-02-19T12:53:21.974Z,5.900
2023-02-19T12:55:21.721Z,5.400
2023-02-19T12:56:22.344Z,6.5
2023-02-19T12:57:22.063Z,6.099
2023-02-19T12:58:22.241Z,5
2023-02-19T12:59:21.631Z,5.800
2023-02-19T13:00:23.744Z,6
2023-02-19T13:01:36.445Z,5.099
2023-02-19T13:02:22.457Z,7.199
2023-02-19T13:03:22.101Z,6
2023-02-19T13:04:22.083Z,5.800
2023-02-19T13:05:36.162Z,5.900
2023-02-19T13:06:22.324Z,6.300
2023-02-19T13:07:22.121Z,6.400
2023-02-19T13:08:22.088Z,6.599
2023-02-19T13:09:21.203Z,6.800
2023-02-19T13:10:21.322Z,6.199
2023-02-19T13:11:21.961Z,7.099
2023-02-19T13:12:21.959Z,6.5
2023-02-19T13:13:23.813Z,6
2023-02-19T13:14:22.460Z,6.5
2023-02-19T13:15:21.668Z,6.099
2023-02-19T13:16:22.126Z,7.900
2023-02-19T13:17:21.586Z,6.599
2023-02-19T13:18:21.360Z,8.399
2023-02-19T13:19:22.297Z,5.699
2023-02-19T13:20:21.714Z,5.400
2023-02-19T13:21:22.369Z,6.599
2023-02-19T13:22:21.376Z,6.199
2023-02-19T13:23:21.164Z,6.5
2023-02-19T13:24:21.359Z,6.099
2023-02-19T13:25:22.222Z,6.199
2023-02-19T13:26:21.868Z,6.400
2023-02-19T13:27:22.006Z,5.900
2023-02-19T13:28:21.186Z,6.800
2023-02-19T13:29:22.153Z,5.900
2023-02-19T13:30:21.692Z,5.199
2023-02-19T13:31:21.828Z,5.400
2023-02-19T13:32:21.494Z,5.099
2023-02-19T13:33:21.620Z,6.5
2023-02-19T13:34:22.157Z,6
2023-02-19T13:36:22.343Z,4.599
2023-02-19T13:37:22.269Z,5.300
2023-02-19T13:38:21.888Z,4.300
2023-02-19T13:39:19.412Z,6
2023-02-19T13:40:22.420Z,5.599
2023-02-19T13:41:21.740Z,5.099
2023-02-19T13:42:21.617Z,5.300
2023-02-19T13:43:21.509Z,5.900
2023-02-19T13:44:21.694Z,5.099
2023-02-19T13:45:21.980Z,5.199
2023-02-19T13:46:21.749Z,6.300
2023-02-19T13:47:21.352Z,7.599
2023-02-19T13:48:22.301Z,6.699